sensor_id;sensor_type;location;lat;lon;timestamp;temperature;humidity
69589;SHT31;56792;50.644;17.984;2022-09-03T00:02:30;14.14;57.85
69589;SHT31;56792;50.644;17.984;2022-09-03T00:05:37;14.09;58.10
69589;SHT31;56792;50.644;17.984;2022-09-03T00:08:45;14.05;58.17
69589;SHT31;56792;50.644;17.984;2022-09-03T00:11:54;14.00;58.30
69589;SHT31;56792;50.644;17.984;2022-09-03T00:15:03;13.96;58.38
69589;SHT31;56792;50.644;17.984;2022-09-03T00:17:57;13.90;58.33
69589;SHT31;56792;50.644;17.984;2022-09-03T00:21:00;13.85;58.47
69589;SHT31;56792;50.644;17.984;2022-09-03T00:23:45;13.82;58.46
69589;SHT31;56792;50.644;17.984;2022-09-03T00:26:49;13.77;58.66
69589;SHT31;56792;50.644;17.984;2022-09-03T00:29:45;13.74;58.68
69589;SHT31;56792;50.644;17.984;2022-09-03T00:32:51;13.70;58.83
69589;SHT31;56792;50.644;17.984;2022-09-03T00:36:05;13.66;58.98
69589;SHT31;56792;50.644;17.984;2022-09-03T00:39:12;13.60;59.10
69589;SHT31;56792;50.644;17.984;2022-09-03T00:42:22;13.55;59.02
69589;SHT31;56792;50.644;17.984;2022-09-03T00:45:38;13.50;59.12
69589;SHT31;56792;50.644;17.984;2022-09-03T00:48:52;13.45;59.09
69589;SHT31;56792;50.644;17.984;2022-09-03T18:42:52;17.59;63.53
69589;SHT31;56792;50.644;17.984;2022-09-03T18:45:56;17.59;63.61
69589;SHT31;56792;50.644;17.984;2022-09-03T18:48:57;17.58;63.57
69589;SHT31;56792;50.644;17.984;2022-09-03T18:51:58;17.56;63.48
69589;SHT31;56792;50.644;17.984;2022-09-03T18:55:00;17.54;63.45
69589;SHT31;56792;50.644;17.984;2022-09-03T18:58:06;17.50;63.47
69589;SHT31;56792;50.644;17.984;2022-09-03T19:01:10;17.46;63.54
69589;SHT31;56792;50.644;17.984;2022-09-03T19:04:12;17.43;63.75
69589;SHT31;56792;50.644;17.984;2022-09-03T19:07:18;17.39;63.98
69589;SHT31;56792;50.644;17.984;2022-09-03T19:10:21;17.37;63.81
69589;SHT31;56792;50.644;17.984;2022-09-03T19:13:23;17.35;63.87
69589;SHT31;56792;50.644;17.984;2022-09-03T19:16:24;17.35;63.91
69589;SHT31;56792;50.644;17.984;2022-09-03T19:19:40;17.34;63.75
69589;SHT31;56792;50.644;17.984;2022-09-03T19:22:47;17.33;63.97
69589;SHT31;56792;50.644;17.984;2022-09-03T19:25:37;17.33;63.91
69589;SHT31;56792;50.644;17.984;2022-09-03T19:28:28;17.31;63.97
69589;SHT31;56792;50.644;17.984;2022-09-03T19:31:26;17.30;63.95
69589;SHT31;56792;50.644;17.984;2022-09-03T19:34:40;17.28;64.10
69589;SHT31;56792;50.644;17.984;2022-09-03T19:38:02;17.26;64.08
69589;SHT31;56792;50.644;17.984;2022-09-03T19:41:09;17.24;64.15
69589;SHT31;56792;50.644;17.984;2022-09-03T19:44:23;17.22;64.10
69589;SHT31;56792;50.644;17.984;2022-09-03T19:47:39;17.20;63.88
69589;SHT31;56792;50.644;17.984;2022-09-03T19:50:46;17.18;63.95
69589;SHT31;56792;50.644;17.984;2022-09-03T19:53:53;17.15;63.99
69589;SHT31;56792;50.644;17.984;2022-09-03T19:56:46;17.10;63.93
69589;SHT31;56792;50.644;17.984;2022-09-03T19:59:39;17.08;64.06
69589;SHT31;56792;50.644;17.984;2022-09-03T20:02:38;17.03;64.07
69589;SHT31;56792;50.644;17.984;2022-09-03T20:05:34;17.01;64.13
69589;SHT31;56792;50.644;17.984;2022-09-03T20:08:25;16.97;64.17
69589;SHT31;56792;50.644;17.984;2022-09-03T20:11:18;16.93;64.16
69589;SHT31;56792;50.644;17.984;2022-09-03T20:13:53;16.89;64.18
69589;SHT31;56792;50.644;17.984;2022-09-03T20:16:40;16.83;64.27
69589;SHT31;56792;50.644;17.984;2022-09-03T20:19:33;16.77;64.31
69589;SHT31;56792;50.644;17.984;2022-09-03T20:22:23;16.72;64.42
69589;SHT31;56792;50.644;17.984;2022-09-03T20:25:15;16.67;64.49
69589;SHT31;56792;50.644;17.984;2022-09-03T20:28:03;16.63;64.52
69589;SHT31;56792;50.644;17.984;2022-09-03T20:30:52;16.58;64.69
69589;SHT31;56792;50.644;17.984;2022-09-03T20:33:42;16.52;64.71
69589;SHT31;56792;50.644;17.984;2022-09-03T20:36:36;16.47;64.82
69589;SHT31;56792;50.644;17.984;2022-09-03T20:39:30;16.41;64.92
69589;SHT31;56792;50.644;17.984;2022-09-03T20:42:27;16.35;64.99
69589;SHT31;56792;50.644;17.984;2022-09-03T20:45:17;16.29;65.19
69589;SHT31;56792;50.644;17.984;2022-09-03T20:48:07;16.22;65.36
69589;SHT31;56792;50.644;17.984;2022-09-03T20:50:51;16.18;65.41
69589;SHT31;56792;50.644;17.984;2022-09-03T20:53:38;16.14;65.51
69589;SHT31;56792;50.644;17.984;2022-09-03T20:56:29;16.09;65.66
69589;SHT31;56792;50.644;17.984;2022-09-03T20:59:15;16.06;65.73
69589;SHT31;56792;50.644;17.984;2022-09-03T21:02:03;16.01;65.83
69589;SHT31;56792;50.644;17.984;2022-09-03T21:04:50;15.96;65.95
69589;SHT31;56792;50.644;17.984;2022-09-03T21:07:40;15.92;66.09
69589;SHT31;56792;50.644;17.984;2022-09-03T21:10:30;15.87;66.19
69589;SHT31;56792;50.644;17.984;2022-09-03T21:13:11;15.83;66.26
69589;SHT31;56792;50.644;17.984;2022-09-03T21:16:02;15.77;66.40
69589;SHT31;56792;50.644;17.984;2022-09-03T21:18:51;15.73;66.43
69589;SHT31;56792;50.644;17.984;2022-09-03T21:21:44;15.68;66.49
69589;SHT31;56792;50.644;17.984;2022-09-03T21:24:27;15.64;66.55
69589;SHT31;56792;50.644;17.984;2022-09-03T21:27:08;15.60;66.61
69589;SHT31;56792;50.644;17.984;2022-09-03T21:29:48;15.56;66.73
69589;SHT31;56792;50.644;17.984;2022-09-03T21:32:32;15.52;66.86
69589;SHT31;56792;50.644;17.984;2022-09-03T21:35:12;15.49;66.90
69589;SHT31;56792;50.644;17.984;2022-09-03T21:37:53;15.45;66.97
69589;SHT31;56792;50.644;17.984;2022-09-03T21:40:32;15.38;67.21
69589;SHT31;56792;50.644;17.984;2022-09-03T21:43:11;15.32;67.36
69589;SHT31;56792;50.644;17.984;2022-09-03T21:45:53;15.25;67.55
69589;SHT31;56792;50.644;17.984;2022-09-03T21:48:34;15.19;67.57
69589;SHT31;56792;50.644;17.984;2022-09-03T21:51:15;15.17;67.62
69589;SHT31;56792;50.644;17.984;2022-09-03T21:53:56;15.14;67.65
69589;SHT31;56792;50.644;17.984;2022-09-03T21:56:41;15.08;67.78
69589;SHT31;56792;50.644;17.984;2022-09-03T21:59:42;15.05;67.84
69589;SHT31;56792;50.644;17.984;2022-09-03T22:02:41;15.02;67.90
69589;SHT31;56792;50.644;17.984;2022-09-03T22:05:15;14.98;67.92
69589;SHT31;56792;50.644;17.984;2022-09-03T22:07:54;14.92;68.07
69589;SHT31;56792;50.644;17.984;2022-09-03T22:10:46;14.85;68.18
69589;SHT31;56792;50.644;17.984;2022-09-03T22:13:29;14.83;68.29
69589;SHT31;56792;50.644;17.984;2022-09-03T22:16:13;14.80;68.40
69589;SHT31;56792;50.644;17.984;2022-09-03T22:18:56;14.77;68.48
69589;SHT31;56792;50.644;17.984;2022-09-03T22:21:32;14.73;68.68
69589;SHT31;56792;50.644;17.984;2022-09-03T22:24:25;14.68;68.77
69589;SHT31;56792;50.644;17.984;2022-09-03T22:27:12;14.64;68.90
69589;SHT31;56792;50.644;17.984;2022-09-03T22:30:01;14.60;68.99
69589;SHT31;56792;50.644;17.984;2022-09-03T22:32:42;14.57;69.13
69589;SHT31;56792;50.644;17.984;2022-09-03T22:35:34;14.56;69.21
69589;SHT31;56792;50.644;17.984;2022-09-03T22:41:52;14.50;69.65
69589;SHT31;56792;50.644;17.984;2022-09-03T22:45:02;14.48;69.71
69589;SHT31;56792;50.644;17.984;2022-09-03T22:47:55;14.48;70.03
69589;SHT31;56792;50.644;17.984;2022-09-03T22:50:44;14.46;70.20
69589;SHT31;56792;50.644;17.984;2022-09-03T22:53:29;14.45;70.27
69589;SHT31;56792;50.644;17.984;2022-09-03T22:56:20;14.43;70.22
69589;SHT31;56792;50.644;17.984;2022-09-03T22:58:54;14.41;70.30
69589;SHT31;56792;50.644;17.984;2022-09-03T23:01:32;14.40;70.20
69589;SHT31;56792;50.644;17.984;2022-09-03T23:04:11;14.41;70.20
69589;SHT31;56792;50.644;17.984;2022-09-03T23:06:56;14.39;70.16
69589;SHT31;56792;50.644;17.984;2022-09-03T23:09:38;14.36;70.15
69589;SHT31;56792;50.644;17.984;2022-09-03T23:12:15;14.34;70.23
69589;SHT31;56792;50.644;17.984;2022-09-03T23:14:55;14.31;70.16
69589;SHT31;56792;50.644;17.984;2022-09-03T23:18:02;14.28;70.16
69589;SHT31;56792;50.644;17.984;2022-09-03T23:21:06;14.25;69.96
69589;SHT31;56792;50.644;17.984;2022-09-03T23:23:52;14.22;69.93
69589;SHT31;56792;50.644;17.984;2022-09-03T23:26:34;14.18;70.11
69589;SHT31;56792;50.644;17.984;2022-09-03T23:29:12;14.15;70.37
69589;SHT31;56792;50.644;17.984;2022-09-03T23:31:50;14.11;70.23
69589;SHT31;56792;50.644;17.984;2022-09-03T23:34:29;14.09;70.39
69589;SHT31;56792;50.644;17.984;2022-09-03T23:37:24;14.07;70.34
69589;SHT31;56792;50.644;17.984;2022-09-03T23:40:18;14.03;70.49
69589;SHT31;56792;50.644;17.984;2022-09-03T23:43:09;14.00;70.48
69589;SHT31;56792;50.644;17.984;2022-09-03T23:46:11;13.95;70.53
69589;SHT31;56792;50.644;17.984;2022-09-03T23:48:55;13.90;70.63
69589;SHT31;56792;50.644;17.984;2022-09-03T23:52:08;13.86;70.74
69589;SHT31;56792;50.644;17.984;2022-09-03T23:55:15;13.85;70.81
69589;SHT31;56792;50.644;17.984;2022-09-03T23:58:02;13.83;70.86
